Time;durP1;ratioP1;P1;durP2;ratioP2;P2;SDS_P1;SDS_P2;PMS_P1;PMS_P2;Temp;Humidity;BMP_temperature;BMP_pressure;BME280_temperature;BME280_humidity;BME280_pressure;Samples;Min_cycle;Max_cycle;Signal;HPM_P1;HPM_P2
2022/08/14 00:01:31;;;;;;;0.63;0.53;;;;;;;25.02;52.53;94546.47;5029452;28;20196;-72
2022/08/14 00:03:58;;;;;;;0.60;0.60;;;;;;;24.94;52.66;94534.03;5029142;28;20227;-72
2022/08/14 00:06:26;;;;;;;0.87;0.87;;;;;;;24.95;52.64;94538.28;5029193;28;20723;-71
2022/08/14 00:08:55;;;;;;;0.87;0.87;;;;;;;25.04;52.55;94544.22;5029257;28;20357;-74
2022/08/14 00:11:28;;;;;;;1.83;1.13;;;;;;;25.20;51.78;94529.94;5029566;28;20704;-74
2022/08/14 00:14:00;;;;;;;0.50;0.50;;;;;;;24.95;51.31;94530.25;5030363;28;20189;-73
2022/08/14 00:16:28;;;;;;;2.17;1.53;;;;;;;24.91;51.41;94513.31;5033245;28;20228;-72
2022/08/14 00:19:12;;;;;;;1.00;0.70;;;;;;;25.00;51.25;94516.56;5033444;28;20704;-72
2022/08/14 00:21:50;;;;;;;1.67;1.43;;;;;;;24.92;51.83;94520.25;5033407;28;20674;-71
2022/08/14 00:24:19;;;;;;;0.80;0.80;;;;;;;24.89;51.84;94523.63;5033208;28;20271;-71
2022/08/14 00:26:57;;;;;;;3.90;1.97;;;;;;;24.84;52.38;94518.56;5033197;28;20196;-72
2022/08/14 00:29:30;;;;;;;1.00;1.00;;;;;;;24.93;52.08;94516.44;5031627;28;20239;-73
2022/08/14 00:32:07;;;;;;;1.30;1.20;;;;;;;24.83;52.67;94527.72;5020237;28;20243;-70
2022/08/14 00:34:55;;;;;;;0.60;0.60;;;;;;;24.71;52.87;94524.41;5021217;28;20274;-72
2022/08/14 00:37:22;;;;;;;1.40;1.30;;;;;;;24.72;52.92;94532.09;5032893;28;20673;-70
2022/08/14 00:39:49;;;;;;;0.87;0.87;;;;;;;24.91;52.17;94516.00;5027104;28;20202;-71
2022/08/14 00:42:21;;;;;;;0.50;0.50;;;;;;;25.02;51.92;94533.06;5025617;28;20327;-70
2022/08/14 00:45:11;;;;;;;2.50;1.93;;;;;;;25.01;52.37;94525.38;5020850;28;20213;-71
2022/08/14 00:47:41;;;;;;;2.53;2.03;;;;;;;25.10;52.00;94525.94;5031857;28;20677;-73
2022/08/14 00:50:14;;;;;;;1.43;0.93;;;;;;;25.03;52.21;94521.22;5020461;28;20228;-71
2022/08/14 00:52:48;;;;;;;1.20;1.07;;;;;;;25.01;51.99;94506.63;5032421;28;20349;-73
2022/08/14 00:55:18;;;;;;;1.27;1.17;;;;;;;24.98;51.83;94502.72;5032300;28;20197;-73
2022/08/14 00:58:29;;;;;;;2.57;1.60;;;;;;;24.97;52.19;94509.22;5032405;28;20197;-74
2022/08/14 01:00:33;;;;;;;0.70;0.70;;;;;;;25.04;51.92;94512.03;5032308;28;20223;-72
2022/08/14 01:03:18;;;;;;;1.53;1.43;;;;;;;25.04;51.91;94495.94;5032651;28;20201;-71
2022/08/14 01:05:48;;;;;;;0.97;0.83;;;;;;;24.87;52.34;94495.63;5032248;28;20283;-72
2022/08/14 01:08:21;;;;;;;0.30;0.30;;;;;;;24.86;52.48;94492.16;5032731;28;20236;-72
2022/08/14 01:11:08;;;;;;;1.00;0.97;;;;;;;24.88;52.08;94487.25;5031711;28;20280;-72
2022/08/14 01:13:38;;;;;;;1.00;0.93;;;;;;;24.89;52.21;94496.81;5018411;28;20702;-72
2022/08/14 01:16:12;;;;;;;0.77;0.77;;;;;;;24.99;51.86;94493.56;5032555;28;20211;-72
2022/08/14 01:21:38;;;;;;;0.60;0.60;;;;;;;24.96;51.86;94483.53;5032037;28;20255;-72
2022/08/14 01:24:14;;;;;;;0.83;0.83;;;;;;;24.91;52.12;94469.66;5032005;28;20221;-74
2022/08/14 01:26:54;;;;;;;1.13;1.03;;;;;;;25.01;51.64;94483.28;5031653;28;20201;-73
2022/08/14 01:29:22;;;;;;;2.33;2.13;;;;;;;24.88;52.21;94476.50;5031824;28;20198;-70
2022/08/14 01:32:09;;;;;;;1.63;1.53;;;;;;;24.82;51.81;94480.59;5031990;28;20201;-74
2022/08/14 01:34:36;;;;;;;1.03;1.03;;;;;;;24.80;51.83;94458.75;5031813;28;20579;-72
2022/08/14 01:37:24;;;;;;;0.60;0.60;;;;;;;24.99;51.96;94482.84;5031994;28;20301;-73
2022/08/14 01:39:52;;;;;;;3.63;1.80;;;;;;;25.09;51.43;94474.22;5031881;28;20197;-72
2022/08/14 01:42:20;;;;;;;2.20;1.43;;;;;;;24.90;51.81;94479.63;5018982;28;20202;-73
2022/08/14 01:44:58;;;;;;;0.50;0.50;;;;;;;25.06;51.66;94485.66;5018688;28;20209;-73
2022/08/14 01:47:26;;;;;;;1.30;0.97;;;;;;;24.95;51.68;94486.59;5031543;28;20247;-73
2022/08/14 01:50:05;;;;;;;0.50;0.50;;;;;;;24.53;52.48;94465.09;5031708;28;20273;-71
2022/08/14 01:52:35;;;;;;;0.97;0.97;;;;;;;25.04;51.81;94477.19;5031919;28;20266;-74
2022/08/14 01:55:29;;;;;;;1.60;1.00;;;;;;;25.12;51.31;94480.00;5031358;28;20259;-73
2022/08/14 01:57:57;;;;;;;1.50;0.93;;;;;;;25.09;51.01;94479.56;5031473;28;20196;-73
2022/08/14 02:00:45;;;;;;;0.63;0.63;;;;;;;24.79;51.64;94470.59;5018416;28;20272;-71
2022/08/14 02:03:14;;;;;;;0.60;0.60;;;;;;;24.81;51.64;94473.72;5031663;28;20192;-72
2022/08/14 02:05:42;;;;;;;3.20;1.43;;;;;;;24.97;51.25;94476.28;5030945;28;20273;-73
2022/08/14 02:08:09;;;;;;;0.87;0.87;;;;;;;24.80;51.44;94474.81;5031650;28;20201;-72
2022/08/14 02:10:40;;;;;;;0.53;0.53;;;;;;;24.75;51.14;94483.16;5031121;28;20217;-70
2022/08/14 02:13:15;;;;;;;3.97;0.97;;;;;;;24.84;50.75;94475.66;5030953;28;20691;-71
2022/08/14 02:15:44;;;;;;;0.50;0.50;;;;;;;24.81;50.85;94464.88;5031225;28;20249;-73
2022/08/14 02:18:15;;;;;;;0.67;0.67;;;;;;;24.71;51.20;94466.22;5031768;28;20201;-72
2022/08/14 02:20:44;;;;;;;0.40;0.40;;;;;;;24.84;50.57;94467.63;5017862;28;20243;-74
2022/08/14 02:23:13;;;;;;;1.00;1.00;;;;;;;24.83;51.15;94473.34;5031267;28;20201;-71
2022/08/14 02:25:43;;;;;;;0.80;0.80;;;;;;;24.73;50.88;94457.84;5030817;28;20850;-71
2022/08/14 02:28:20;;;;;;;1.47;1.40;;;;;;;24.82;50.98;94461.84;5031095;28;20189;-73
2022/08/14 02:31:07;;;;;;;0.83;0.83;;;;;;;24.77;50.84;94464.03;5030788;28;20197;-71
2022/08/14 02:33:34;;;;;;;1.60;1.27;;;;;;;24.55;51.86;94468.19;5030809;28;20192;-70
2022/08/14 02:36:05;;;;;;;5.60;2.43;;;;;;;24.61;51.61;94466.78;5030663;28;20189;-72
2022/08/14 02:38:52;;;;;;;1.23;1.03;;;;;;;24.49;52.34;94469.59;5030040;28;20236;-75
2022/08/14 02:41:19;;;;;;;2.43;1.33;;;;;;;24.62;51.63;94473.69;5030295;28;20189;-73
2022/08/14 02:43:46;;;;;;;2.93;1.37;;;;;;;24.73;51.85;94463.97;5030846;28;20706;-74
2022/08/14 02:46:15;;;;;;;0.63;0.63;;;;;;;24.56;51.70;94472.41;5030632;28;20201;-73
2022/08/14 02:48:53;;;;;;;1.20;1.10;;;;;;;24.35;52.06;94466.63;5030723;28;20201;-73
2022/08/14 02:51:32;;;;;;;0.80;0.80;;;;;;;24.49;51.61;94458.13;5030606;28;20204;-73
2022/08/14 02:54:00;;;;;;;0.70;0.70;;;;;;;24.68;51.24;94463.44;5030346;28;20193;-71
2022/08/14 02:56:29;;;;;;;0.53;0.53;;;;;;;24.63;51.92;94456.50;5025781;28;20248;-74
2022/08/14 02:59:17;;;;;;;3.33;1.60;;;;;;;24.65;51.90;94456.13;5019101;28;20201;-73
2022/08/14 03:01:46;;;;;;;0.40;0.40;;;;;;;24.60;51.71;94467.91;5026568;28;20225;-70
2022/08/14 03:04:21;;;;;;;1.43;0.67;;;;;;;24.59;51.80;94461.00;5030159;28;20259;-73
2022/08/14 03:06:49;;;;;;;1.70;0.80;;;;;;;24.57;51.71;94463.25;5029814;28;20241;-73
2022/08/14 03:09:38;;;;;;;0.47;0.47;;;;;;;24.55;51.62;94457.47;5030556;28;20305;-74
2022/08/14 03:12:25;;;;;;;1.30;1.07;;;;;;;24.39;52.04;94459.47;5029828;28;20545;-71
2022/08/14 03:15:07;;;;;;;1.13;1.13;;;;;;;23.93;53.83;94468.38;5018422;28;20210;-71
2022/08/14 03:17:41;;;;;;;4.67;1.10;;;;;;;24.45;52.20;94462.63;5016262;28;20205;-73
2022/08/14 03:20:22;;;;;;;2.90;2.03;;;;;;;24.58;52.18;94472.06;5028759;28;20205;-73
2022/08/14 03:22:51;;;;;;;1.93;1.83;;;;;;;24.68;51.58;94456.19;5030305;28;20200;-72
2022/08/14 03:25:20;;;;;;;1.43;1.33;;;;;;;24.69;51.49;94455.06;5020978;28;20232;-73
2022/08/14 03:27:47;;;;;;;2.07;0.73;;;;;;;24.97;50.65;94446.78;5034963;28;20200;-73
2022/08/14 03:30:30;;;;;;;1.30;1.23;;;;;;;24.84;50.89;94469.53;5029763;28;20197;-74
2022/08/14 03:33:10;;;;;;;2.07;1.13;;;;;;;24.75;51.33;94469.75;5017372;28;20197;-72
2022/08/14 03:35:39;;;;;;;1.13;1.10;;;;;;;24.73;51.74;94485.41;5029854;28;20211;-72
2022/08/14 03:38:26;;;;;;;1.30;1.20;;;;;;;24.98;50.78;94481.28;5018780;28;20185;-75
2022/08/14 03:41:21;;;;;;;1.73;1.63;;;;;;;25.09;50.64;94476.88;5015430;28;20197;-72
2022/08/14 03:43:56;;;;;;;0.83;0.83;;;;;;;24.94;51.35;94479.69;5029945;28;20232;-74
2022/08/14 03:46:43;;;;;;;0.50;0.50;;;;;;;25.12;50.65;94480.00;5017215;28;20197;-70
2022/08/14 03:49:23;;;;;;;0.87;0.87;;;;;;;24.97;50.94;94478.97;5015260;28;20741;-73
2022/08/14 03:51:57;;;;;;;1.53;1.33;;;;;;;24.92;51.54;94488.09;5021832;28;20236;-72
2022/08/14 03:54:27;;;;;;;1.70;1.57;;;;;;;24.90;51.45;94489.56;5028983;28;20201;-71
2022/08/14 03:56:59;;;;;;;1.70;1.60;;;;;;;24.79;51.63;94478.66;5029697;28;20193;-71
2022/08/14 03:59:32;;;;;;;1.03;1.00;;;;;;;24.65;51.84;94472.97;5029725;28;20591;-74
2022/08/14 04:01:59;;;;;;;1.53;1.43;;;;;;;24.80;51.63;94480.19;5029443;28;20208;-72
2022/08/14 04:04:30;;;;;;;5.87;1.73;;;;;;;24.97;51.22;94487.78;5020259;28;20214;-73
2022/08/14 04:06:59;;;;;;;1.90;1.80;;;;;;;24.71;51.99;94492.25;5025120;28;20233;-73
2022/08/14 04:09:28;;;;;;;4.93;2.97;;;;;;;24.97;51.41;94485.09;5029608;28;20583;-73
2022/08/14 04:11:55;;;;;;;1.77;1.53;;;;;;;24.90;51.66;94487.66;5029194;28;20271;-72
2022/08/14 04:14:25;;;;;;;0.57;0.57;;;;;;;25.01;51.30;94479.81;5029195;28;20196;-73
2022/08/14 04:16:52;;;;;;;1.00;1.00;;;;;;;24.85;52.10;94493.28;5028437;28;20205;-73
2022/08/14 04:19:22;;;;;;;1.17;0.83;;;;;;;24.93;51.51;94489.63;5015627;28;20193;-72
2022/08/14 04:21:50;;;;;;;2.53;2.30;;;;;;;24.65;51.91;94462.25;5029219;28;20201;-73
2022/08/14 04:24:33;;;;;;;1.23;1.17;;;;;;;24.83;51.63;94497.47;5016858;28;20719;-71
2022/08/14 04:27:12;;;;;;;1.23;1.13;;;;;;;24.85;51.77;94471.84;5030415;28;20191;-73
2022/08/14 04:29:44;;;;;;;1.50;1.40;;;;;;;24.79;51.61;94483.22;5018012;28;20281;-75
2022/08/14 04:32:11;;;;;;;2.07;1.87;;;;;;;24.67;52.10;94486.03;5029664;28;20324;-71
2022/08/14 04:34:59;;;;;;;0.97;0.97;;;;;;;24.91;51.86;94489.19;5018256;28;20686;-72
2022/08/14 04:46:17;;;;;;;0.40;0.40;;;;;;;24.81;51.98;94487.09;5029038;28;20797;-73
2022/08/14 04:49:05;;;;;;;1.23;1.23;;;;;;;24.86;51.37;94483.34;5029209;28;20197;-73
2022/08/14 04:51:33;;;;;;;1.77;1.67;;;;;;;25.18;50.65;94484.72;5029005;28;20316;-72
2022/08/14 04:54:21;;;;;;;1.07;1.07;;;;;;;25.28;50.12;94478.75;5029263;28;20189;-73
2022/08/14 04:56:50;;;;;;;2.10;1.77;;;;;;;25.16;50.58;94480.84;5029224;28;20215;-74
2022/08/14 04:59:21;;;;;;;2.40;2.00;;;;;;;25.30;50.60;94481.06;5020283;28;20190;-73
2022/08/14 05:01:48;;;;;;;1.03;1.03;;;;;;;25.18;50.94;94475.88;5026740;28;20197;-72
2022/08/14 05:04:23;;;;;;;1.43;1.33;;;;;;;25.36;50.18;94487.69;5032954;28;20188;-69
2022/08/14 05:06:53;;;;;;;4.73;2.00;;;;;;;25.31;50.52;94479.94;5033345;28;20237;-72
2022/08/14 05:09:24;;;;;;;2.10;1.83;;;;;;;25.37;50.18;94481.19;5032713;28;20193;-72
2022/08/14 05:11:55;;;;;;;3.83;1.87;;;;;;;25.20;50.74;94481.69;5033051;28;20212;-70
2022/08/14 05:14:42;;;;;;;1.90;1.63;;;;;;;25.23;51.25;94491.69;5034466;28;20524;-73
2022/08/14 05:17:25;;;;;;;2.37;1.70;;;;;;;25.27;51.55;94479.91;5031941;28;20217;-72
2022/08/14 05:20:09;;;;;;;1.37;1.27;;;;;;;25.39;51.09;94478.94;5032545;28;20587;-72
2022/08/14 05:22:58;;;;;;;7.07;2.43;;;;;;;25.39;50.91;94487.00;5020044;28;20192;-75
2022/08/14 05:25:27;;;;;;;0.50;0.50;;;;;;;25.32;50.70;94479.59;5032441;28;20264;-74
2022/08/14 05:28:18;;;;;;;1.37;1.27;;;;;;;25.44;50.67;94481.31;5019117;28;20189;-73
2022/08/14 05:30:58;;;;;;;1.50;1.40;;;;;;;25.26;50.77;94481.00;5028671;28;20709;-73
2022/08/14 05:33:27;;;;;;;8.97;2.80;;;;;;;25.43;50.51;94487.84;5022283;28;20246;-74
2022/08/14 05:35:59;;;;;;;1.03;0.93;;;;;;;25.44;50.79;94484.00;5032011;28;20204;-73
2022/08/14 05:38:32;;;;;;;1.60;1.50;;;;;;;25.39;50.72;94478.94;5023478;28;20256;-73
2022/08/14 05:41:19;;;;;;;5.67;2.33;;;;;;;25.45;51.09;94482.91;5027727;28;20572;-74
2022/08/14 05:43:47;;;;;;;0.97;0.97;;;;;;;25.20;51.15;94470.94;5031893;28;20225;-75
2022/08/14 05:46:17;;;;;;;0.70;0.70;;;;;;;25.38;50.90;94477.41;5031402;28;20219;-71
2022/08/14 05:48:54;;;;;;;2.20;1.00;;;;;;;25.69;50.25;94495.94;5030654;28;20201;-70
2022/08/14 05:51:25;;;;;;;2.90;2.50;;;;;;;25.89;49.76;94478.59;5030249;28;20262;-70
2022/08/14 05:53:52;;;;;;;1.03;1.03;;;;;;;25.95;49.53;94479.81;5031370;28;20597;-72
2022/08/14 05:56:38;;;;;;;1.67;1.57;;;;;;;25.86;49.57;94487.38;5031527;28;20196;-70
2022/08/14 05:59:05;;;;;;;1.37;0.90;;;;;;;25.94;49.69;94483.66;5031436;28;20663;-74
2022/08/14 06:01:33;;;;;;;1.27;1.17;;;;;;;25.92;49.54;94485.94;5031141;28;20200;-73
2022/08/14 06:04:03;;;;;;;1.53;1.43;;;;;;;25.75;50.06;94483.75;5031397;28;20213;-73
2022/08/14 06:06:31;;;;;;;0.93;0.93;;;;;;;25.52;50.54;94474.97;5031188;28;20329;-74
2022/08/14 06:09:06;;;;;;;2.13;2.00;;;;;;;25.52;50.80;94483.78;5031529;28;20563;-72
2022/08/14 06:11:36;;;;;;;0.63;0.63;;;;;;;25.28;51.53;94499.41;5029851;28;20209;-71
2022/08/14 06:14:03;;;;;;;2.13;1.93;;;;;;;25.48;51.13;94493.69;5017167;28;20185;-73
2022/08/14 06:16:38;;;;;;;2.00;1.50;;;;;;;25.21;51.55;94480.53;5031095;28;20663;-71
2022/08/14 06:19:06;;;;;;;4.43;2.20;;;;;;;25.04;52.08;94501.31;5030919;28;20255;-71
2022/08/14 06:21:41;;;;;;;2.47;2.27;;;;;;;25.21;51.87;94491.25;5031126;28;20319;-71
2022/08/14 06:24:08;;;;;;;2.63;2.43;;;;;;;25.45;51.21;94497.09;5030640;28;20197;-70
2022/08/14 06:26:44;;;;;;;1.43;1.33;;;;;;;25.24;51.77;94501.25;5030701;28;20262;-72
2022/08/14 06:29:22;;;;;;;1.57;1.43;;;;;;;25.57;50.83;94501.47;5030449;28;20189;-73
2022/08/14 06:31:51;;;;;;;1.17;1.13;;;;;;;25.41;51.28;94508.88;5030509;28;20228;-70
2022/08/14 06:34:26;;;;;;;1.60;1.50;;;;;;;25.33;51.14;94507.19;5030780;28;20201;-72
2022/08/14 06:37:13;;;;;;;1.93;1.83;;;;;;;25.45;51.28;94510.50;5029917;28;20223;-73
2022/08/14 06:39:42;;;;;;;2.27;1.70;;;;;;;25.37;51.71;94514.16;5025271;28;20694;-73
2022/08/14 06:42:10;;;;;;;3.30;2.83;;;;;;;25.33;51.54;94501.84;5022131;28;20217;-72
2022/08/14 06:44:56;;;;;;;2.27;1.67;;;;;;;25.35;51.45;94499.53;5030188;28;20541;-73
2022/08/14 06:47:24;;;;;;;1.40;1.30;;;;;;;25.33;51.88;94507.19;5030529;28;20192;-74
2022/08/14 06:49:50;;;;;;;1.43;1.33;;;;;;;25.45;51.10;94515.88;5030190;28;20193;-72
2022/08/14 06:52:24;;;;;;;6.73;2.77;;;;;;;25.33;50.97;94507.94;5030298;28;20201;-73
2022/08/14 06:54:51;;;;;;;2.00;1.80;;;;;;;25.18;51.35;94510.75;5030215;28;20593;-74
2022/08/14 06:57:18;;;;;;;2.00;1.83;;;;;;;25.27;51.15;94514.75;5016937;28;20225;-73
2022/08/14 06:59:47;;;;;;;1.03;1.00;;;;;;;25.36;51.08;94511.84;5028758;28;20209;-73
2022/08/14 07:08:25;;;;;;;10.87;2.13;;;;;;;25.53;50.41;94514.09;5030864;28;20201;-73
2022/08/14 07:11:02;;;;;;;1.87;1.77;;;;;;;25.49;50.62;94515.94;5020475;28;20203;-73
2022/08/14 07:13:30;;;;;;;1.00;1.00;;;;;;;25.38;50.71;94514.97;5031452;28;20548;-75
2022/08/14 07:15:59;;;;;;;1.40;1.30;;;;;;;25.33;50.87;94501.84;5030177;28;20196;-72
2022/08/14 07:18:33;;;;;;;1.63;1.53;;;;;;;25.28;51.55;94499.41;5028937;28;20751;-71
2022/08/14 07:21:04;;;;;;;1.10;0.90;;;;;;;25.29;51.63;94517.06;5015799;28;20745;-74
2022/08/14 07:23:34;;;;;;;1.40;1.30;;;;;;;25.44;50.86;94497.41;5029614;28;20205;-74
2022/08/14 07:26:07;;;;;;;2.33;1.60;;;;;;;25.42;51.23;94511.19;5025090;28;20217;-72
2022/08/14 07:28:38;;;;;;;2.23;1.90;;;;;;;25.75;50.49;94524.78;5022263;28;20531;-73
2022/08/14 07:31:11;;;;;;;1.53;1.43;;;;;;;25.63;50.94;94516.94;5029510;28;20215;-75
2022/08/14 07:33:44;;;;;;;0.80;0.80;;;;;;;25.58;50.97;94508.41;5029357;28;20210;-72
2022/08/14 07:36:18;;;;;;;1.60;1.07;;;;;;;25.62;50.92;94509.25;5024625;28;20198;-72
2022/08/14 07:38:57;;;;;;;0.67;0.67;;;;;;;25.73;50.39;94504.81;5023035;28;20297;-74
2022/08/14 07:41:24;;;;;;;6.33;1.97;;;;;;;25.81;50.27;94512.63;5029360;28;20591;-73
2022/08/14 07:44:01;;;;;;;1.70;1.60;;;;;;;25.45;51.21;94515.88;5017021;28;20205;-74
2022/08/14 07:46:48;;;;;;;1.23;1.13;;;;;;;25.53;50.98;94516.75;5017446;28;20274;-72
2022/08/14 07:49:15;;;;;;;0.37;0.37;;;;;;;25.86;50.47;94514.22;5029603;28;20636;-72
2022/08/14 07:51:44;;;;;;;0.87;0.87;;;;;;;25.87;50.42;94526.50;5016275;28;20857;-73
2022/08/14 07:54:16;;;;;;;2.30;2.13;;;;;;;25.87;49.93;94515.78;5029537;28;20236;-75
2022/08/14 07:57:00;;;;;;;2.43;2.27;;;;;;;25.74;50.22;94527.84;5029507;28;20193;-72
2022/08/14 07:59:40;;;;;;;2.03;1.63;;;;;;;25.53;50.09;94511.41;5029795;28;20555;-71
2022/08/14 08:02:15;;;;;;;3.70;1.83;;;;;;;25.78;49.89;94524.06;5010735;28;20221;-72
2022/08/14 08:04:54;;;;;;;1.47;1.37;;;;;;;25.84;49.56;94519.16;5021669;28;20201;-73
2022/08/14 08:07:30;;;;;;;1.33;1.23;;;;;;;25.79;50.27;94530.22;5028894;28;20245;-72
2022/08/14 08:10:00;;;;;;;5.70;2.77;;;;;;;25.80;50.24;94527.16;5029360;28;20291;-72
2022/08/14 08:12:29;;;;;;;7.07;3.90;;;;;;;25.93;49.95;94514.31;5029173;28;20189;-72
2022/08/14 08:14:59;;;;;;;3.97;2.47;;;;;;;26.13;49.67;94515.03;5027716;28;20636;-76
2022/08/14 08:17:36;;;;;;;1.83;1.73;;;;;;;26.02;49.81;94512.16;5029531;28;20223;-74
2022/08/14 08:20:14;;;;;;;3.83;2.30;;;;;;;25.96;49.96;94516.28;5029569;28;20231;-71
2022/08/14 08:22:42;;;;;;;2.20;1.27;;;;;;;26.18;49.35;94504.75;5029396;28;20299;-73
2022/08/14 08:25:14;;;;;;;1.80;1.37;;;;;;;26.11;48.78;94498.50;5029460;28;20189;-71
2022/08/14 08:28:12;;;;;;;0.80;0.80;;;;;;;26.22;47.78;94497.53;5029101;28;20217;-69
2022/08/14 08:30:55;;;;;;;0.73;0.73;;;;;;;26.34;48.01;94502.66;5026413;28;20690;-72
2022/08/14 08:33:26;;;;;;;2.00;1.37;;;;;;;26.51;47.70;94510.19;5018467;28;20813;-71
2022/08/14 08:35:59;;;;;;;1.23;1.00;;;;;;;26.06;47.72;94501.50;5030259;28;20227;-69
2022/08/14 08:38:27;;;;;;;0.57;0.57;;;;;;;26.48;46.47;94508.22;5033142;28;20201;-71
2022/08/14 08:41:14;;;;;;;0.53;0.53;;;;;;;26.37;46.50;94507.31;5032807;28;20586;-70
2022/08/14 08:43:42;;;;;;;0.80;0.80;;;;;;;26.59;46.32;94498.38;5022451;28;20202;-72
2022/08/14 08:46:19;;;;;;;0.50;0.50;;;;;;;26.57;46.28;94503.34;5027066;28;20222;-72
2022/08/14 08:48:55;;;;;;;0.57;0.57;;;;;;;26.58;46.09;94507.59;5023362;28;20228;-72
2022/08/14 08:51:26;;;;;;;0.50;0.50;;;;;;;26.20;45.40;94505.19;5032429;28;20719;-71
2022/08/14 08:54:00;;;;;;;0.77;0.73;;;;;;;26.25;45.84;94504.84;5030826;28;20208;-72
2022/08/14 08:56:41;;;;;;;0.83;0.70;;;;;;;26.46;45.99;94502.44;5026037;28;20204;-70
2022/08/14 08:59:21;;;;;;;1.13;0.97;;;;;;;26.32;47.35;94504.94;5020187;28;20657;-71
2022/08/14 09:01:59;;;;;;;0.90;0.90;;;;;;;25.85;47.58;94485.84;5018671;28;20645;-72
2022/08/14 09:04:28;;;;;;;0.20;0.20;;;;;;;26.38;46.27;94489.28;5032464;28;20185;-70
2022/08/14 09:06:56;;;;;;;0.30;0.30;;;;;;;25.96;46.85;94497.50;5032126;28;20286;-71
2022/08/14 09:09:52;;;;;;;0.53;0.50;;;;;;;25.83;47.69;94483.50;5031009;28;20209;-69
2022/08/14 09:12:30;;;;;;;0.53;0.53;;;;;;;26.46;45.84;94480.19;5032496;28;20276;-70
2022/08/14 09:15:00;;;;;;;1.53;1.43;;;;;;;26.21;46.14;94479.84;5032346;28;20197;-69
2022/08/14 09:17:27;;;;;;;0.60;0.60;;;;;;;26.17;46.97;94476.34;5032210;28;20205;-70
2022/08/14 09:19:55;;;;;;;0.70;0.70;;;;;;;26.36;46.68;94484.28;5032236;28;20292;-71
2022/08/14 09:22:27;;;;;;;0.47;0.47;;;;;;;26.49;47.04;94476.75;5018297;28;20296;-71
2022/08/14 09:25:15;;;;;;;0.40;0.40;;;;;;;26.53;47.17;94467.59;5032095;28;20197;-72
2022/08/14 09:27:42;;;;;;;0.50;0.50;;;;;;;26.61;47.17;94479.19;5017957;28;20209;-71
2022/08/14 09:30:10;;;;;;;1.20;1.00;;;;;;;26.08;46.61;94475.81;5032318;28;20229;-70
2022/08/14 09:33:10;;;;;;;0.57;0.57;;;;;;;26.35;46.01;94480.03;5031888;28;20193;-70
2022/08/14 09:35:44;;;;;;;0.63;0.53;;;;;;;25.55;47.39;94487.66;5032028;28;20193;-70
2022/08/14 09:38:33;;;;;;;0.20;0.20;;;;;;;26.48;45.64;94481.34;5018672;28;20978;-68
2022/08/14 09:41:12;;;;;;;0.50;0.50;;;;;;;26.50;46.37;94479.06;5031412;28;20204;-68
2022/08/14 09:44:05;;;;;;;0.60;0.60;;;;;;;26.82;45.01;94458.72;5031613;28;20763;-69
2022/08/14 09:46:33;;;;;;;0.90;0.90;;;;;;;26.56;46.30;94485.69;5021333;28;20291;-68
2022/08/14 09:49:05;;;;;;;0.57;0.57;;;;;;;26.91;45.48;94482.66;5027301;28;20517;-68
2022/08/14 09:51:38;;;;;;;0.83;0.83;;;;;;;26.92;45.73;94474.22;5022971;28;20194;-70
2022/08/14 09:54:42;;;;;;;1.87;1.77;;;;;;;27.18;45.15;94475.25;5023049;28;20197;-68
2022/08/14 09:57:12;;;;;;;5.60;5.03;;;;;;;27.29;43.99;94481.50;5027760;28;20624;-66
2022/08/14 09:59:45;;;;;;;1.13;1.13;;;;;;;27.18;44.45;94469.84;5022081;28;20228;-66
2022/08/14 10:02:30;;;;;;;0.73;0.73;;;;;;;27.67;43.33;94470.31;5025323;28;20199;-68
2022/08/14 10:05:09;;;;;;;0.97;0.97;;;;;;;27.52;44.23;94471.34;5029467;28;20318;-67
2022/08/14 10:07:49;;;;;;;0.50;0.50;;;;;;;27.86;43.44;94467.41;5025748;28;20308;-68
2022/08/14 10:10:33;;;;;;;0.30;0.30;;;;;;;27.58;44.56;94475.25;5028132;28;20197;-68
2022/08/14 10:13:02;;;;;;;1.70;1.60;;;;;;;27.64;43.96;94471.06;5024924;28;20208;-69
2022/08/14 10:15:35;;;;;;;4.40;3.73;;;;;;;27.69;43.12;94479.56;5020796;28;20208;-67
2022/08/14 10:18:11;;;;;;;0.73;0.73;;;;;;;28.18;42.66;94473.78;5021537;28;20206;-68
2022/08/14 10:20:59;;;;;;;1.60;1.50;;;;;;;27.93;44.33;94470.16;5023571;28;20193;-69
2022/08/14 10:23:42;;;;;;;0.73;0.73;;;;;;;27.68;43.62;94471.88;5029399;28;20228;-67
2022/08/14 10:26:09;;;;;;;1.07;1.07;;;;;;;27.66;42.88;94464.16;5028544;28;20236;-68
2022/08/14 10:28:50;;;;;;;0.50;0.50;;;;;;;28.08;41.98;94452.16;5028164;28;20204;-69
2022/08/14 10:31:37;;;;;;;0.70;0.70;;;;;;;28.09;41.71;94459.09;5020308;28;20197;-68
2022/08/14 10:34:17;;;;;;;1.40;0.73;;;;;;;27.74;41.62;94444.22;5026135;28;20314;-66
2022/08/14 10:36:48;;;;;;;1.43;1.33;;;;;;;27.61;41.55;94436.84;5026527;28;20401;-69
2022/08/14 10:39:24;;;;;;;0.53;0.53;;;;;;;28.02;41.56;94437.50;5020010;28;20285;-68
2022/08/14 10:42:10;;;;;;;0.67;0.67;;;;;;;27.48;41.66;94443.66;5026298;28;20211;-69
2022/08/14 10:44:47;;;;;;;1.20;1.10;;;;;;;26.83;42.36;94438.78;5016576;28;20677;-69
2022/08/14 10:47:18;;;;;;;7.10;2.87;;;;;;;26.43;42.65;94430.63;5015894;28;20220;-73
2022/08/14 10:50:06;;;;;;;0.40;0.40;;;;;;;26.94;43.25;94422.75;5014242;28;20664;-69
2022/08/14 10:52:41;;;;;;;0.57;0.50;;;;;;;27.18;42.15;94426.81;5029536;28;20292;-68
2022/08/14 10:55:15;;;;;;;0.87;0.50;;;;;;;27.31;42.46;94415.44;5030604;28;20220;-68
2022/08/14 10:57:53;;;;;;;13.50;12.17;;;;;;;27.89;41.16;94426.25;5019662;28;20201;-69
2022/08/14 11:00:28;;;;;;;0.93;0.93;;;;;;;27.61;41.81;94418.75;5026774;28;20204;-71
2022/08/14 11:03:12;;;;;;;15.87;11.70;;;;;;;28.32;40.09;94409.16;5029370;28;20201;-66
2022/08/14 11:05:50;;;;;;;1.17;1.17;;;;;;;27.48;40.14;94409.41;5027075;28;20247;-69
2022/08/14 11:08:31;;;;;;;0.40;0.40;;;;;;;27.81;40.84;94408.47;5029115;28;20668;-69
2022/08/14 11:11:04;;;;;;;0.47;0.47;;;;;;;27.76;40.76;94381.91;5020462;28;20197;-66
2022/08/14 11:13:32;;;;;;;1.20;1.00;;;;;;;28.11;40.62;94402.91;5028048;28;20299;-66
2022/08/14 11:16:01;;;;;;;0.63;0.63;;;;;;;27.89;41.08;94404.69;5028283;28;20247;-69
2022/08/14 11:18:29;;;;;;;0.10;0.10;;;;;;;27.96;40.10;94402.84;5029094;28;20196;-67
2022/08/14 11:21:07;;;;;;;0.40;0.40;;;;;;;28.35;39.35;94392.25;5025172;28;20189;-68
2022/08/14 11:23:39;;;;;;;0.30;0.30;;;;;;;28.31;40.10;94390.69;5029235;28;20300;-68
2022/08/14 11:26:11;;;;;;;0.50;0.50;;;;;;;27.23;40.05;94402.25;5022522;28;20259;-64
2022/08/14 11:28:43;;;;;;;0.20;0.20;;;;;;;27.66;39.91;94388.78;5025778;28;20318;-66
2022/08/14 11:31:18;;;;;;;0.50;0.50;;;;;;;27.95;39.41;94395.94;5028436;28;20287;-67
2022/08/14 11:33:56;;;;;;;0.70;0.70;;;;;;;27.87;39.14;94397.00;5022684;28;20702;-68
2022/08/14 11:36:27;;;;;;;0.47;0.47;;;;;;;27.88;39.61;94400.47;5023124;28;20229;-66
2022/08/14 11:39:21;;;;;;;0.50;0.50;;;;;;;27.47;40.39;94396.34;5021579;28;20193;-67
2022/08/14 11:42:06;;;;;;;0.40;0.40;;;;;;;27.81;39.13;94405.78;5027935;28;20209;-68
2022/08/14 11:45:02;;;;;;;1.17;0.83;;;;;;;27.96;38.82;94407.44;5023531;28;20594;-67
2022/08/14 11:47:37;;;;;;;4.80;4.23;;;;;;;27.75;38.97;94402.72;5015787;28;20236;-68
2022/08/14 11:50:31;;;;;;;1.67;1.57;;;;;;;28.20;38.43;94396.03;5021291;28;20190;-68
2022/08/14 11:53:04;;;;;;;0.30;0.30;;;;;;;28.32;38.10;94398.38;5028075;28;21015;-68
2022/08/14 11:55:37;;;;;;;1.23;1.13;;;;;;;28.37;38.72;94406.13;5021329;28;20193;-67
2022/08/14 11:58:10;;;;;;;1.23;0.70;;;;;;;28.22;38.77;94388.34;5027630;28;20279;-65
2022/08/14 12:00:52;;;;;;;0.40;0.40;;;;;;;28.34;38.69;94390.69;5020169;28;20590;-67
2022/08/14 12:03:20;;;;;;;1.20;1.10;;;;;;;27.81;39.25;94389.63;5028230;28;20189;-68
2022/08/14 12:06:10;;;;;;;0.37;0.37;;;;;;;28.05;38.12;94404.44;5028550;28;20621;-68
2022/08/14 12:08:57;;;;;;;0.43;0.43;;;;;;;27.89;38.84;94402.00;5027472;28;20700;-67
2022/08/14 12:11:38;;;;;;;0.30;0.30;;;;;;;28.27;38.85;94393.38;5031439;28;20744;-68
2022/08/14 12:14:09;;;;;;;0.57;0.57;;;;;;;28.33;38.47;94389.16;5018071;28;20669;-70
2022/08/14 12:17:06;;;;;;;1.27;0.97;;;;;;;28.27;39.58;94385.28;5030545;28;20189;-67
2022/08/14 12:19:44;;;;;;;0.30;0.30;;;;;;;28.59;38.33;94377.34;5018157;28;20203;-70
2022/08/14 12:22:17;;;;;;;0.63;0.63;;;;;;;27.35;39.46;94385.88;5014313;28;20220;-69
2022/08/14 12:24:56;;;;;;;0.60;0.60;;;;;;;27.54;39.04;94374.84;5031672;28;20205;-68
2022/08/14 12:27:47;;;;;;;0.70;0.70;;;;;;;27.76;38.87;94380.00;5030016;28;20615;-67
2022/08/14 12:30:33;;;;;;;0.27;0.27;;;;;;;28.11;38.09;94360.59;5030869;28;20197;-68